Time;durP1;ratioP1;P1;durP2;ratioP2;P2;SDS_P1;SDS_P2;PMS_P1;PMS_P2;Temp;Humidity;BMP_temperature;BMP_pressure;BME280_temperature;BME280_humidity;BME280_pressure;Samples;Min_cycle;Max_cycle;Signal;HPM_P1;HPM_P2
2021/12/12 00:00:45;;;;;;;77.67;34.73;;;3.60;99.90;;;;;;5054020;28;20649;-55
2021/12/12 00:03:32;;;;;;;76.93;34.27;;;3.60;99.90;;;;;;5037587;28;20206;-56
2021/12/12 00:06:05;;;;;;;72.57;33.50;;;3.60;99.90;;;;;;5054210;28;20676;-55
2021/12/12 00:08:33;;;;;;;86.60;36.07;;;3.60;99.90;;;;;;5054154;28;20247;-52
2021/12/12 00:11:05;;;;;;;75.47;34.87;;;3.60;99.90;;;;;;5053783;28;20257;-53
2021/12/12 00:13:37;;;;;;;69.97;33.00;;;3.60;99.90;;;;;;5054477;28;20317;-54
2021/12/12 00:16:07;;;;;;;68.30;33.27;;;3.70;99.90;;;;;;5053513;28;20747;-54
2021/12/12 00:18:37;;;;;;;71.80;34.30;;;3.70;99.90;;;;;;5054101;28;20285;-55
2021/12/12 00:21:07;;;;;;;63.20;31.17;;;3.70;99.90;;;;;;5053048;28;20261;-55
2021/12/12 00:23:35;;;;;;;62.30;31.87;;;3.70;99.90;;;;;;5053939;28;20240;-56
2021/12/12 00:26:05;;;;;;;59.03;31.50;;;3.70;99.90;;;;;;5054058;28;20241;-55
2021/12/12 00:28:34;;;;;;;74.40;33.60;;;3.80;99.90;;;;;;5053979;28;20236;-56
2021/12/12 00:31:10;;;;;;;89.27;37.67;;;3.70;99.90;;;;;;5053507;28;20270;-54
2021/12/12 00:33:42;;;;;;;72.13;33.97;;;3.60;99.90;;;;;;5053711;28;20261;-55
2021/12/12 00:36:16;;;;;;;131.97;38.03;;;3.60;99.90;;;;;;5053887;28;20196;-57
2021/12/12 00:38:47;;;;;;;124.97;36.17;;;3.50;99.90;;;;;;5053706;28;20249;-57
2021/12/12 00:41:20;;;;;;;117.43;36.63;;;3.50;99.90;;;;;;5053339;28;20667;-55
2021/12/12 00:43:50;;;;;;;278.17;46.40;;;3.50;99.90;;;;;;5053460;28;20684;-55
2021/12/12 00:46:20;;;;;;;147.23;37.30;;;3.40;99.90;;;;;;5053384;28;20244;-55
2021/12/12 00:48:50;;;;;;;459.70;56.80;;;3.40;99.90;;;;;;5053661;28;20246;-53
2021/12/12 00:51:22;;;;;;;208.60;39.93;;;3.40;99.90;;;;;;5052722;28;20648;-55
2021/12/12 00:53:50;;;;;;;113.40;34.30;;;3.40;99.90;;;;;;5051753;28;20256;-55
2021/12/12 00:56:19;;;;;;;161.17;36.97;;;3.40;99.90;;;;;;5053198;28;20251;-55
2021/12/12 00:58:47;;;;;;;135.60;36.43;;;3.40;99.90;;;;;;5050592;28;20234;-53
2021/12/12 01:01:18;;;;;;;277.37;41.30;;;3.40;99.90;;;;;;5035228;28;20591;-54
2021/12/12 01:03:54;;;;;;;294.60;46.00;;;3.40;99.90;;;;;;5052870;28;20574;-53
2021/12/12 01:06:24;;;;;;;136.53;37.67;;;3.30;99.90;;;;;;5053079;28;20226;-55
2021/12/12 01:08:56;;;;;;;297.67;48.47;;;3.30;99.90;;;;;;5052984;28;20234;-53
2021/12/12 01:11:30;;;;;;;219.17;39.03;;;3.40;99.90;;;;;;5052681;28;20264;-53
2021/12/12 01:13:59;;;;;;;211.43;40.10;;;3.40;99.90;;;;;;5052979;28;20273;-53
2021/12/12 01:16:31;;;;;;;277.27;48.40;;;3.40;99.90;;;;;;5052769;28;20241;-53
2021/12/12 01:19:06;;;;;;;197.43;41.40;;;3.30;99.90;;;;;;5053204;28;20237;-55
2021/12/12 01:21:37;;;;;;;173.17;37.43;;;3.40;99.90;;;;;;5053074;28;20658;-54
2021/12/12 01:24:09;;;;;;;332.80;47.00;;;3.40;99.90;;;;;;5052718;28;20237;-52
2021/12/12 01:26:38;;;;;;;314.47;48.13;;;3.40;99.90;;;;;;5052273;28;20701;-53
2021/12/12 01:29:08;;;;;;;186.13;41.03;;;3.30;99.90;;;;;;5052798;28;20233;-54
2021/12/12 01:31:45;;;;;;;115.50;37.03;;;3.30;99.90;;;;;;5052511;28;20918;-55
2021/12/12 01:34:18;;;;;;;157.20;38.97;;;3.40;99.90;;;;;;5052627;28;20264;-55
2021/12/12 01:36:57;;;;;;;80.70;35.00;;;3.40;99.90;;;;;;5036115;28;20310;-55
2021/12/12 01:39:26;;;;;;;91.07;35.70;;;3.40;99.90;;;;;;5052434;28;20395;-54
2021/12/12 01:41:59;;;;;;;277.17;51.13;;;3.40;99.90;;;;;;5052652;28;20261;-56
2021/12/12 01:44:30;;;;;;;183.70;46.33;;;3.50;99.90;;;;;;5051772;28;20722;-56
2021/12/12 01:47:04;;;;;;;137.63;42.37;;;3.30;99.90;;;;;;5052676;28;20233;-55
2021/12/12 01:49:35;;;;;;;97.10;39.07;;;3.30;99.90;;;;;;5051318;28;20637;-57
2021/12/12 01:52:07;;;;;;;70.33;34.40;;;3.40;99.90;;;;;;5051450;28;20254;-56
2021/12/12 01:54:44;;;;;;;76.03;35.97;;;3.40;99.90;;;;;;5050957;28;20319;-55
2021/12/12 01:57:14;;;;;;;75.70;36.00;;;3.40;99.90;;;;;;5050703;28;20276;-54
2021/12/12 01:59:44;;;;;;;90.83;38.57;;;3.40;99.90;;;;;;5051792;28;20240;-54
2021/12/12 02:02:16;;;;;;;101.07;40.07;;;3.40;99.90;;;;;;5044869;28;20283;-56
2021/12/12 02:04:49;;;;;;;93.93;38.93;;;3.40;99.90;;;;;;5060754;28;20586;-56
2021/12/12 02:07:20;;;;;;;80.10;35.33;;;3.40;99.90;;;;;;5062228;28;20202;-55
2021/12/12 02:09:49;;;;;;;64.97;33.00;;;3.40;99.90;;;;;;5051739;28;20233;-55
2021/12/12 02:12:20;;;;;;;62.13;32.53;;;3.40;99.90;;;;;;5051687;28;20226;-55
2021/12/12 02:14:49;;;;;;;77.20;35.57;;;3.40;99.90;;;;;;5052184;28;20276;-55
2021/12/12 02:17:26;;;;;;;59.77;30.63;;;3.40;99.90;;;;;;5051902;28;20285;-55
2021/12/12 02:20:05;;;;;;;59.03;30.60;;;3.30;99.90;;;;;;5052266;28;20653;-54
2021/12/12 02:22:52;;;;;;;64.93;32.70;;;3.30;99.90;;;;;;5051356;28;20272;-55
2021/12/12 02:36:30;;;;;;;62.03;32.97;;;3.40;99.90;;;;;;5051304;28;20730;-55
2021/12/12 02:39:02;;;;;;;61.83;30.87;;;3.30;99.90;;;;;;5050919;28;20872;-56
2021/12/12 02:41:30;;;;;;;60.03;31.70;;;3.30;99.90;;;;;;5051721;28;20263;-55
2021/12/12 02:44:02;;;;;;;52.53;29.73;;;3.30;99.90;;;;;;5050793;28;20271;-54
2021/12/12 02:46:34;;;;;;;60.23;31.23;;;3.40;99.90;;;;;;5050935;28;20237;-55
2021/12/12 02:49:09;;;;;;;55.57;28.93;;;3.30;99.90;;;;;;5051482;28;20288;-55
2021/12/12 02:51:39;;;;;;;57.10;30.07;;;3.30;99.90;;;;;;5050494;28;20252;-55
2021/12/12 02:54:10;;;;;;;56.23;29.23;;;3.20;99.90;;;;;;5051271;28;20233;-55
2021/12/12 02:56:41;;;;;;;53.57;27.77;;;3.20;99.90;;;;;;5051122;28;20315;-56
2021/12/12 02:59:13;;;;;;;48.37;27.20;;;3.20;99.90;;;;;;5045933;28;20230;-54
2021/12/12 03:01:45;;;;;;;58.00;28.33;;;3.20;99.90;;;;;;5031062;28;20261;-55
2021/12/12 03:04:14;;;;;;;48.20;25.20;;;3.20;99.90;;;;;;5047553;28;20220;-55
2021/12/12 03:06:44;;;;;;;45.47;25.57;;;3.20;99.90;;;;;;5051615;28;20238;-56
2021/12/12 03:09:20;;;;;;;41.47;23.07;;;3.20;99.90;;;;;;5051175;28;20212;-55
2021/12/12 03:11:52;;;;;;;39.00;22.23;;;3.10;99.90;;;;;;5051465;28;20259;-55
2021/12/12 03:14:20;;;;;;;40.47;20.50;;;3.10;99.90;;;;;;5051077;28;20577;-54
2021/12/12 03:16:49;;;;;;;33.60;18.40;;;3.10;99.90;;;;;;5051532;28;20267;-55
2021/12/12 03:19:20;;;;;;;41.27;19.27;;;3.10;99.90;;;;;;5051173;28;20240;-56
2021/12/12 03:21:49;;;;;;;30.17;17.53;;;3.00;99.90;;;;;;5051342;28;20225;-55
2021/12/12 03:24:22;;;;;;;31.10;17.53;;;3.10;99.90;;;;;;5050988;28;20266;-55
2021/12/12 03:26:54;;;;;;;27.53;16.97;;;3.10;99.90;;;;;;5051124;28;20238;-54
2021/12/12 03:29:22;;;;;;;28.93;16.60;;;3.10;99.90;;;;;;5047218;28;20285;-55
2021/12/12 03:31:57;;;;;;;31.73;15.70;;;3.10;99.90;;;;;;5051141;28;20254;-56
2021/12/12 03:34:33;;;;;;;25.07;14.37;;;3.10;99.90;;;;;;5051264;28;20235;-55
2021/12/12 03:37:03;;;;;;;24.03;14.00;;;3.10;99.90;;;;;;5050989;28;20261;-55
2021/12/12 03:39:37;;;;;;;24.80;13.17;;;3.10;99.90;;;;;;5051190;28;20239;-54
2021/12/12 03:42:09;;;;;;;26.00;12.97;;;3.10;99.90;;;;;;5049330;28;20264;-55
2021/12/12 03:44:39;;;;;;;24.20;13.20;;;3.10;99.90;;;;;;5050736;28;20309;-55
2021/12/12 03:47:11;;;;;;;20.90;12.10;;;3.10;99.90;;;;;;5050551;28;20284;-55
2021/12/12 03:49:40;;;;;;;24.53;13.20;;;3.10;99.90;;;;;;5050634;28;20234;-55
2021/12/12 03:52:10;;;;;;;22.50;11.27;;;3.10;99.90;;;;;;5050166;28;20305;-55
2021/12/12 03:54:40;;;;;;;20.03;11.47;;;3.10;99.90;;;;;;5050480;28;20237;-55
2021/12/12 03:57:08;;;;;;;23.90;12.73;;;3.10;99.90;;;;;;5052783;28;20257;-53
2021/12/12 03:59:37;;;;;;;23.10;12.27;;;3.10;99.90;;;;;;5054124;28;20240;-56
2021/12/12 04:02:07;;;;;;;25.13;11.13;;;3.00;99.90;;;;;;5054544;28;20269;-55
2021/12/12 04:04:37;;;;;;;20.43;11.70;;;3.10;99.90;;;;;;5054335;28;20208;-55
2021/12/12 04:07:09;;;;;;;21.50;11.60;;;3.10;99.90;;;;;;5054528;28;20247;-52
2021/12/12 04:09:39;;;;;;;21.80;10.77;;;3.10;99.90;;;;;;5054330;28;20254;-54
2021/12/12 04:12:11;;;;;;;24.37;11.30;;;3.10;99.90;;;;;;5054305;28;20266;-55
2021/12/12 04:14:39;;;;;;;22.43;11.00;;;3.10;99.90;;;;;;5054235;28;20226;-55
2021/12/12 04:17:11;;;;;;;18.67;10.33;;;3.00;99.90;;;;;;5053860;28;20260;-56
2021/12/12 04:19:40;;;;;;;17.87;10.93;;;3.10;99.90;;;;;;5053894;28;20739;-55
2021/12/12 04:22:08;;;;;;;20.17;10.70;;;3.10;99.90;;;;;;5053773;28;20315;-55
2021/12/12 04:24:40;;;;;;;21.93;10.80;;;3.10;99.90;;;;;;5053442;28;20650;-55
2021/12/12 04:27:09;;;;;;;20.63;9.27;;;3.00;99.90;;;;;;5051093;28;20240;-56
2021/12/12 04:29:40;;;;;;;20.13;10.10;;;3.00;99.90;;;;;;5054258;28;20634;-56
2021/12/12 04:32:11;;;;;;;19.30;10.23;;;3.00;99.90;;;;;;5053584;28;20312;-55
2021/12/12 04:34:44;;;;;;;16.43;10.17;;;3.00;99.90;;;;;;5053843;28;20244;-55
2021/12/12 04:37:12;;;;;;;20.23;9.77;;;2.90;99.90;;;;;;5052754;28;20310;-56
2021/12/12 04:39:47;;;;;;;18.07;10.10;;;2.90;99.90;;;;;;5053705;28;20251;-55
2021/12/12 04:42:18;;;;;;;21.90;10.80;;;2.90;99.90;;;;;;5053656;28;20262;-53
2021/12/12 04:44:49;;;;;;;20.43;10.37;;;2.90;99.90;;;;;;5053748;28;20248;-54
2021/12/12 04:50:17;;;;;;;17.87;9.87;;;2.90;99.90;;;;;;5034011;28;20206;-54
2021/12/12 04:52:49;;;;;;;18.53;11.50;;;2.90;99.90;;;;;;5040249;28;20279;-54
2021/12/12 04:55:26;;;;;;;20.73;10.67;;;2.80;99.90;;;;;;5053332;28;20284;-56
2021/12/12 04:58:02;;;;;;;20.93;12.23;;;2.80;99.90;;;;;;5053206;28;20228;-55
2021/12/12 05:00:34;;;;;;;18.53;12.00;;;2.80;99.90;;;;;;5036647;28;20244;-56
2021/12/12 05:03:13;;;;;;;18.67;12.37;;;2.80;99.90;;;;;;5033652;28;20793;-55
2021/12/12 05:05:46;;;;;;;20.00;13.13;;;2.80;99.90;;;;;;5033272;28;20678;-56
2021/12/12 05:08:19;;;;;;;25.33;13.87;;;2.80;99.90;;;;;;5034075;28;20209;-54
2021/12/12 05:10:56;;;;;;;22.97;14.40;;;2.70;99.90;;;;;;5053190;28;20689;-56
2021/12/12 05:13:26;;;;;;;22.93;13.27;;;2.80;99.90;;;;;;5070923;28;20177;-57
2021/12/12 05:15:59;;;;;;;23.83;14.07;;;2.80;99.90;;;;;;5063384;28;20264;-56
2021/12/12 05:18:32;;;;;;;20.83;12.60;;;2.80;99.90;;;;;;5053348;28;20223;-55
2021/12/12 05:21:04;;;;;;;28.73;15.90;;;2.80;99.90;;;;;;5053123;28;20210;-55
2021/12/12 05:23:34;;;;;;;24.93;15.07;;;2.80;99.90;;;;;;5053060;28;20578;-55
2021/12/12 05:26:08;;;;;;;25.10;13.47;;;2.80;99.90;;;;;;5052873;28;20205;-55
2021/12/12 05:28:43;;;;;;;26.27;14.27;;;2.80;99.90;;;;;;5052933;28;20197;-55
2021/12/12 05:31:13;;;;;;;22.50;13.27;;;2.80;99.90;;;;;;5052915;28;20228;-55
2021/12/12 05:33:41;;;;;;;25.40;13.73;;;2.80;99.90;;;;;;5052182;28;20205;-55
2021/12/12 05:36:11;;;;;;;27.90;15.27;;;2.80;99.90;;;;;;5052695;28;20260;-56
2021/12/12 05:38:40;;;;;;;23.70;13.90;;;2.80;99.90;;;;;;5052496;28;20239;-55
2021/12/12 05:41:11;;;;;;;26.07;13.57;;;2.80;99.90;;;;;;5052425;28;20235;-55
2021/12/12 05:43:39;;;;;;;21.80;14.73;;;2.80;99.90;;;;;;5052480;28;20288;-55
2021/12/12 05:46:08;;;;;;;23.73;14.27;;;2.80;99.90;;;;;;5052423;28;20255;-55
2021/12/12 05:48:36;;;;;;;25.33;15.70;;;2.80;99.90;;;;;;5052274;28;20210;-55
2021/12/12 05:51:04;;;;;;;24.10;14.30;;;2.80;99.90;;;;;;5051916;28;20264;-56
2021/12/12 05:53:32;;;;;;;26.50;15.70;;;2.80;99.90;;;;;;5052435;28;20260;-57
2021/12/12 05:56:00;;;;;;;28.80;16.07;;;2.80;99.90;;;;;;5052050;28;20712;-56
2021/12/12 05:58:31;;;;;;;21.43;15.47;;;2.80;99.90;;;;;;5052464;28;20246;-55
2021/12/12 06:01:04;;;;;;;25.70;16.63;;;2.80;99.90;;;;;;5052190;28;20237;-55
2021/12/12 06:03:37;;;;;;;28.17;16.73;;;2.80;99.90;;;;;;5051992;28;20208;-53
2021/12/12 06:06:08;;;;;;;27.13;15.53;;;2.80;99.90;;;;;;5045289;28;20695;-55
2021/12/12 06:08:37;;;;;;;27.37;17.23;;;2.80;99.90;;;;;;5037756;28;20682;-56
2021/12/12 06:11:07;;;;;;;30.67;16.43;;;2.80;99.90;;;;;;5035304;28;20571;-54
2021/12/12 06:13:38;;;;;;;26.00;15.73;;;2.80;99.90;;;;;;5035195;28;20651;-56
2021/12/12 06:16:08;;;;;;;28.73;15.90;;;2.90;99.90;;;;;;5032211;28;20237;-56
2021/12/12 06:18:37;;;;;;;24.83;15.43;;;2.90;99.90;;;;;;5032122;28;20315;-55
2021/12/12 06:21:06;;;;;;;27.60;17.30;;;2.90;99.90;;;;;;5031322;28;20260;-56
2021/12/12 06:23:35;;;;;;;27.80;15.70;;;2.90;99.90;;;;;;5035753;28;20644;-54
2021/12/12 06:26:04;;;;;;;26.73;16.77;;;2.90;99.90;;;;;;5032293;28;20293;-55
2021/12/12 06:28:35;;;;;;;24.77;15.70;;;2.90;99.90;;;;;;5034641;28;20285;-54
2021/12/12 06:31:06;;;;;;;24.83;15.00;;;2.80;99.90;;;;;;5046664;28;20317;-56
2021/12/12 06:33:37;;;;;;;24.53;14.03;;;2.80;99.90;;;;;;5046616;28;20263;-55
2021/12/12 06:36:06;;;;;;;31.77;17.37;;;2.90;99.90;;;;;;5039101;28;20853;-55
2021/12/12 06:38:37;;;;;;;26.80;16.97;;;2.80;99.90;;;;;;5032803;28;20254;-54
2021/12/12 06:41:07;;;;;;;24.57;16.53;;;2.80;99.90;;;;;;5035607;28;20230;-55
2021/12/12 06:43:35;;;;;;;24.13;15.33;;;2.80;99.90;;;;;;5030957;28;20326;-54
2021/12/12 06:46:07;;;;;;;23.93;16.17;;;2.80;99.90;;;;;;5030199;28;20218;-55
2021/12/12 06:48:36;;;;;;;24.33;14.77;;;2.80;99.90;;;;;;5032507;28;20205;-54
2021/12/12 06:51:04;;;;;;;24.73;15.57;;;2.80;99.90;;;;;;5031832;28;20260;-55
2021/12/12 06:53:35;;;;;;;28.20;16.30;;;2.80;99.90;;;;;;5036938;28;20246;-55
2021/12/12 06:56:05;;;;;;;26.00;15.80;;;2.80;99.90;;;;;;5042718;28;20249;-55
2021/12/12 06:58:34;;;;;;;25.73;14.03;;;2.80;99.90;;;;;;5031459;28;20329;-54
2021/12/12 07:01:08;;;;;;;28.33;16.07;;;2.80;99.90;;;;;;5046747;28;20296;-55
2021/12/12 07:03:37;;;;;;;21.67;14.37;;;2.80;99.90;;;;;;5050739;28;20211;-54
2021/12/12 07:06:07;;;;;;;22.47;13.33;;;2.90;99.90;;;;;;5045585;28;20206;-55
2021/12/12 07:08:35;;;;;;;26.23;15.80;;;2.90;99.90;;;;;;5050401;28;20291;-54
2021/12/12 07:11:04;;;;;;;24.20;15.87;;;3.00;99.90;;;;;;5049962;28;20261;-54
2021/12/12 07:13:33;;;;;;;23.77;16.77;;;2.90;99.90;;;;;;5050832;28;20240;-55
2021/12/12 07:16:03;;;;;;;24.47;15.07;;;2.80;99.90;;;;;;5041681;28;20256;-55
2021/12/12 07:18:35;;;;;;;27.47;17.47;;;2.90;99.90;;;;;;5030946;28;20249;-54
2021/12/12 07:21:06;;;;;;;24.53;15.00;;;2.90;99.90;;;;;;5042518;28;20256;-56
2021/12/12 07:23:35;;;;;;;28.93;17.10;;;2.90;99.90;;;;;;5051235;28;20301;-55
2021/12/12 07:26:06;;;;;;;26.43;16.37;;;2.90;99.90;;;;;;5052236;28;20681;-54
2021/12/12 07:28:35;;;;;;;26.10;17.50;;;2.90;99.90;;;;;;5051785;28;20234;-54
2021/12/12 07:31:07;;;;;;;28.07;16.40;;;2.90;99.90;;;;;;5054782;28;20259;-55
2021/12/12 07:33:38;;;;;;;29.53;18.00;;;2.80;99.90;;;;;;5056847;28;20209;-56
2021/12/12 07:36:10;;;;;;;28.87;17.23;;;2.80;99.90;;;;;;5055989;28;20678;-55
2021/12/12 07:38:43;;;;;;;31.13;17.20;;;2.90;99.90;;;;;;5055405;28;20360;-55
2021/12/12 07:41:13;;;;;;;31.03;18.43;;;2.90;99.90;;;;;;5055064;28;20271;-55
2021/12/12 07:43:41;;;;;;;26.77;17.73;;;2.80;99.90;;;;;;5055064;28;20303;-55
2021/12/12 07:46:09;;;;;;;33.80;17.37;;;2.80;99.90;;;;;;5054320;28;20245;-55
2021/12/12 07:48:43;;;;;;;29.63;18.43;;;2.80;99.90;;;;;;5042072;28;20205;-56
2021/12/12 07:51:12;;;;;;;32.10;18.83;;;2.80;99.90;;;;;;5054654;28;20255;-55
2021/12/12 07:53:41;;;;;;;33.87;18.83;;;2.80;99.90;;;;;;5054532;28;20633;-54
2021/12/12 07:56:10;;;;;;;33.73;19.60;;;2.80;99.90;;;;;;5054593;28;20234;-54
2021/12/12 07:58:39;;;;;;;33.77;19.80;;;2.80;99.90;;;;;;5053903;28;20257;-56
2021/12/12 08:01:08;;;;;;;32.50;19.83;;;2.80;99.90;;;;;;5054631;28;20262;-55
2021/12/12 08:03:37;;;;;;;32.80;19.47;;;2.80;99.90;;;;;;5067873;28;20241;-56
2021/12/12 08:06:09;;;;;;;36.60;20.87;;;2.70;99.90;;;;;;5072062;28;20218;-55
2021/12/12 08:08:38;;;;;;;31.33;20.57;;;2.70;99.90;;;;;;5055255;28;20246;-55
2021/12/12 08:11:07;;;;;;;39.23;21.57;;;2.70;99.90;;;;;;5039151;28;20273;-56
2021/12/12 08:13:36;;;;;;;40.27;19.33;;;2.70;99.90;;;;;;5034423;28;20301;-56
2021/12/12 08:16:08;;;;;;;41.23;21.27;;;2.70;99.90;;;;;;5034022;28;20242;-56
2021/12/12 08:18:38;;;;;;;32.97;19.57;;;2.70;99.90;;;;;;5034181;28;20284;-54
2021/12/12 08:21:09;;;;;;;39.23;22.47;;;2.70;99.90;;;;;;5034186;28;20228;-56
2021/12/12 08:23:38;;;;;;;31.77;19.23;;;2.70;99.90;;;;;;5053940;28;20291;-55
2021/12/12 08:26:09;;;;;;;29.70;19.20;;;2.80;99.90;;;;;;5054051;28;20251;-56
2021/12/12 08:28:38;;;;;;;32.33;19.73;;;2.80;99.90;;;;;;5053631;28;20284;-54
2021/12/12 08:31:07;;;;;;;36.93;21.30;;;2.70;99.90;;;;;;5053938;28;20316;-55
2021/12/12 08:33:35;;;;;;;35.67;20.17;;;2.80;99.90;;;;;;5054005;28;20256;-57
2021/12/12 08:36:04;;;;;;;44.20;24.03;;;2.80;99.90;;;;;;5054188;28;20288;-55
2021/12/12 08:38:34;;;;;;;33.13;20.40;;;2.80;99.90;;;;;;5049359;28;20676;-54
2021/12/12 08:41:04;;;;;;;32.10;19.57;;;2.90;99.90;;;;;;5053677;28;20701;-55
2021/12/12 08:43:32;;;;;;;33.43;20.77;;;2.90;99.90;;;;;;5052735;28;20691;-55
2021/12/12 08:46:06;;;;;;;35.23;21.70;;;2.90;99.90;;;;;;5045891;28;20748;-53
2021/12/12 08:48:38;;;;;;;35.33;20.53;;;2.90;99.90;;;;;;5050785;28;20229;-55
2021/12/12 08:51:10;;;;;;;39.03;22.37;;;2.80;99.90;;;;;;5052456;28;20316;-54
2021/12/12 08:53:41;;;;;;;38.17;23.40;;;2.80;99.90;;;;;;5053133;28;20590;-55
2021/12/12 08:56:18;;;;;;;34.87;19.70;;;2.90;99.90;;;;;;5052968;28;20709;-55
2021/12/12 08:58:48;;;;;;;40.23;21.23;;;2.90;99.90;;;;;;5052015;28;21070;-54
2021/12/12 09:01:18;;;;;;;37.83;20.27;;;2.80;99.90;;;;;;5052101;28;20222;-56
2021/12/12 09:03:53;;;;;;;32.30;19.10;;;2.90;99.90;;;;;;5043013;28;20196;-55
2021/12/12 09:06:27;;;;;;;40.03;21.17;;;3.00;99.90;;;;;;5041692;28;20229;-54
2021/12/12 09:09:00;;;;;;;27.47;19.03;;;2.90;99.90;;;;;;5041834;28;20735;-54
2021/12/12 09:11:31;;;;;;;34.17;18.77;;;2.90;99.90;;;;;;5042063;28;20283;-55
2021/12/12 09:14:07;;;;;;;35.87;19.33;;;2.90;99.90;;;;;;5052633;28;20247;-55
2021/12/12 09:16:40;;;;;;;32.70;19.20;;;2.90;99.90;;;;;;5050065;28;20205;-54
2021/12/12 09:19:13;;;;;;;39.37;21.10;;;3.00;99.90;;;;;;5052542;28;20295;-55
2021/12/12 09:21:50;;;;;;;34.33;20.07;;;3.00;99.90;;;;;;5052567;28;20261;-55
2021/12/12 09:24:32;;;;;;;34.70;21.30;;;3.00;99.90;;;;;;5052367;28;20717;-55
2021/12/12 09:27:06;;;;;;;31.77;19.80;;;3.00;99.90;;;;;;5051717;28;20293;-54
2021/12/12 09:29:40;;;;;;;37.07;21.07;;;3.10;99.90;;;;;;5052716;28;20272;-54
2021/12/12 09:32:12;;;;;;;36.37;20.57;;;3.10;99.90;;;;;;5051945;28;20711;-55
2021/12/12 09:34:50;;;;;;;42.23;22.67;;;3.10;99.90;;;;;;5049199;28;20254;-55
2021/12/12 09:37:25;;;;;;;32.90;19.63;;;3.20;99.90;;;;;;5052094;28;20217;-55
2021/12/12 09:39:59;;;;;;;32.23;18.93;;;3.20;99.90;;;;;;5052239;28;20868;-54
2021/12/12 09:42:46;;;;;;;35.90;19.57;;;3.20;99.90;;;;;;5052316;28;20272;-55
2021/12/12 09:45:35;;;;;;;28.70;19.27;;;3.20;99.90;;;;;;5049299;28;20256;-55
2021/12/12 09:51:34;;;;;;;32.13;19.17;;;3.30;99.90;;;;;;5051648;28;20760;-56
2021/12/12 09:54:20;;;;;;;33.27;18.50;;;3.30;99.90;;;;;;5050602;28;20654;-56
2021/12/12 09:56:56;;;;;;;28.33;17.63;;;3.40;99.90;;;;;;5051632;28;20810;-56
2021/12/12 09:59:54;;;;;;;33.90;17.80;;;3.40;99.90;;;;;;5051625;28;20642;-55
2021/12/12 10:02:28;;;;;;;30.13;18.03;;;3.40;99.90;;;;;;5051035;28;20268;-54
2021/12/12 10:05:20;;;;;;;35.00;20.97;;;3.30;99.90;;;;;;5051916;28;20207;-55
2021/12/12 10:07:56;;;;;;;28.70;17.67;;;3.40;99.90;;;;;;5051672;28;20352;-54
2021/12/12 10:10:29;;;;;;;27.37;16.30;;;3.40;99.90;;;;;;5051494;28;20237;-54
2021/12/12 10:13:06;;;;;;;29.90;17.77;;;3.40;99.90;;;;;;5051269;28;20262;-55
2021/12/12 10:15:42;;;;;;;27.30;15.77;;;3.40;99.90;;;;;;5051283;28;20695;-54
2021/12/12 10:18:16;;;;;;;26.60;15.53;;;3.40;99.90;;;;;;5051751;28;20219;-56
2021/12/12 10:20:52;;;;;;;25.90;15.77;;;3.40;99.90;;;;;;5050156;28;20320;-54
2021/12/12 10:23:29;;;;;;;26.43;16.17;;;3.40;99.90;;;;;;5050985;28;20717;-55
2021/12/12 10:26:05;;;;;;;24.07;16.33;;;3.40;99.90;;;;;;5047430;28;20235;-55
2021/12/12 10:28:42;;;;;;;28.20;14.87;;;3.50;99.90;;;;;;5050924;28;20250;-55
2021/12/12 10:31:18;;;;;;;29.30;16.97;;;3.50;99.90;;;;;;5050579;28;20234;-54
2021/12/12 10:33:49;;;;;;;25.33;15.10;;;3.50;99.90;;;;;;5048142;28;20221;-54
2021/12/12 10:36:21;;;;;;;26.23;15.87;;;3.50;99.90;;;;;;5044289;28;20298;-54
2021/12/12 10:38:55;;;;;;;25.87;15.27;;;3.50;99.90;;;;;;5049557;28;20658;-56
2021/12/12 10:41:27;;;;;;;26.57;16.77;;;3.50;99.90;;;;;;5047358;28;20271;-55
2021/12/12 10:44:03;;;;;;;31.67;15.60;;;3.50;99.90;;;;;;5050920;28;20243;-54
2021/12/12 10:46:38;;;;;;;32.33;16.83;;;3.50;99.90;;;;;;5050441;28;20241;-56
2021/12/12 10:49:15;;;;;;;24.60;14.57;;;3.50;99.90;;;;;;5050103;28;20237;-55
2021/12/12 10:51:47;;;;;;;27.13;15.93;;;3.50;99.90;;;;;;5049717;28;20665;-55
2021/12/12 10:54:20;;;;;;;24.87;14.97;;;3.60;99.90;;;;;;5050563;28;20241;-55
2021/12/12 10:56:53;;;;;;;23.00;14.13;;;3.60;99.90;;;;;;5046740;28;20290;-55
2021/12/12 10:59:26;;;;;;;20.87;13.60;;;3.60;99.90;;;;;;5047748;28;20259;-53
2021/12/12 11:01:57;;;;;;;26.33;15.00;;;3.70;99.90;;;;;;5050080;28;20264;-55
2021/12/12 11:04:37;;;;;;;27.90;14.03;;;3.70;99.90;;;;;;5050439;28;20235;-57
2021/12/12 11:07:08;;;;;;;28.00;15.70;;;3.80;99.90;;;;;;5050509;28;20639;-56
2021/12/12 11:09:41;;;;;;;25.27;14.13;;;3.70;99.90;;;;;;5050913;28;20248;-55
2021/12/12 11:12:17;;;;;;;27.50;14.70;;;3.70;99.90;;;;;;5050175;28;20319;-55
2021/12/12 11:14:57;;;;;;;28.97;15.80;;;3.70;99.90;;;;;;5050300;28;20679;-54
2021/12/12 11:17:34;;;;;;;21.07;13.43;;;3.80;99.90;;;;;;5050788;28;20296;-55
2021/12/12 11:20:08;;;;;;;25.67;15.33;;;3.80;99.90;;;;;;5049595;28;20732;-56
2021/12/12 11:22:43;;;;;;;25.73;13.90;;;3.80;99.90;;;;;;5050621;28;20269;-56
2021/12/12 11:25:18;;;;;;;26.17;17.13;;;3.80;99.90;;;;;;5050467;28;20243;-55
2021/12/12 11:27:49;;;;;;;23.63;15.13;;;3.90;99.90;;;;;;5037874;28;20345;-53
2021/12/12 11:30:22;;;;;;;28.23;14.87;;;3.90;99.90;;;;;;5030885;28;20242;-56
2021/12/12 11:32:53;;;;;;;24.77;14.60;;;3.90;99.90;;;;;;5035757;28;20270;-54
2021/12/12 11:35:23;;;;;;;26.37;16.27;;;3.90;99.90;;;;;;5050759;28;20240;-59
2021/12/12 11:37:57;;;;;;;26.17;15.17;;;3.90;99.90;;;;;;5050855;28;20310;-56
2021/12/12 11:40:29;;;;;;;23.43;14.70;;;3.90;99.90;;;;;;5051051;28;20307;-55
2021/12/12 11:43:02;;;;;;;21.20;14.40;;;3.90;99.90;;;;;;5050716;28;20312;-54
2021/12/12 11:45:38;;;;;;;29.80;17.03;;;3.90;99.90;;;;;;5050745;28;20238;-54
2021/12/12 11:48:17;;;;;;;27.20;15.97;;;3.90;99.90;;;;;;5050088;28;20255;-54
2021/12/12 11:50:53;;;;;;;27.23;15.00;;;4.00;99.90;;;;;;5050423;28;20218;-55
2021/12/12 11:53:34;;;;;;;24.90;15.20;;;4.00;99.90;;;;;;5050855;28;20233;-56
2021/12/12 11:56:06;;;;;;;28.50;13.97;;;4.00;99.90;;;;;;5050768;28;20207;-55
2021/12/12 11:58:38;;;;;;;22.60;13.57;;;4.00;99.90;;;;;;5050262;28;20663;-56
2021/12/12 12:01:17;;;;;;;23.90;14.70;;;4.00;99.90;;;;;;5050234;28;20633;-56
2021/12/12 12:04:03;;;;;;;22.17;14.70;;;4.00;99.90;;;;;;5051021;28;20234;-56
2021/12/12 12:06:39;;;;;;;24.93;16.70;;;4.10;99.90;;;;;;5037114;28;20210;-56
2021/12/12 12:09:27;;;;;;;18.97;12.90;;;4.10;99.90;;;;;;5050851;28;20251;-56
2021/12/12 12:12:11;;;;;;;24.03;13.47;;;4.10;99.90;;;;;;5050632;28;20265;-55
2021/12/12 12:15:02;;;;;;;24.10;14.57;;;4.10;99.90;;;;;;5050251;28;20243;-55
2021/12/12 12:17:47;;;;;;;20.30;12.93;;;4.10;99.90;;;;;;5051636;28;20298;-56
2021/12/12 12:20:27;;;;;;;19.40;13.03;;;4.20;99.90;;;;;;5053921;28;20312;-55
2021/12/12 12:23:02;;;;;;;25.17;15.43;;;4.20;99.90;;;;;;5054257;28;20266;-55
2021/12/12 12:26:50;;;;;;;24.03;13.33;;;4.20;99.90;;;;;;5048668;28;20198;-54
2021/12/12 12:28:35;;;;;;;25.83;15.87;;;4.10;99.90;;;;;;5049800;28;20299;-55
2021/12/12 12:31:54;;;;;;;26.57;14.10;;;4.10;99.90;;;;;;5053532;28;20210;-56
2021/12/12 12:35:01;;;;;;;25.27;12.83;;;4.20;99.90;;;;;;5011741;28;20715;-56
2021/12/12 12:38:12;;;;;;;20.67;14.13;;;4.30;99.90;;;;;;5052810;28;20240;-56
2021/12/12 12:41:19;;;;;;;20.00;12.93;;;4.20;99.90;;;;;;5046952;28;20664;-53
2021/12/12 12:44:24;;;;;;;23.10;13.37;;;4.30;99.90;;;;;;5033883;28;20312;-55
2021/12/12 12:47:54;;;;;;;22.57;12.70;;;4.30;99.90;;;;;;5051109;28;20201;-54
2021/12/12 12:50:48;;;;;;;22.13;13.40;;;4.30;99.90;;;;;;5053963;28;20918;-55
2021/12/12 12:53:43;;;;;;;26.17;15.63;;;4.20;99.90;;;;;;5038438;28;20209;-53
2021/12/12 12:56:46;;;;;;;17.50;13.20;;;4.20;99.90;;;;;;5050045;28;20211;-54
2021/12/12 12:59:44;;;;;;;20.23;13.33;;;4.20;99.90;;;;;;5040548;28;20670;-55
2021/12/12 13:02:19;;;;;;;16.97;12.67;;;4.20;99.90;;;;;;5031534;28;20341;-56
2021/12/12 13:05:11;;;;;;;22.23;14.80;;;4.20;99.90;;;;;;5052878;28;20645;-55
2021/12/12 13:08:29;;;;;;;26.70;15.07;;;4.30;99.90;;;;;;5047592;28;20327;-53
2021/12/12 13:11:00;;;;;;;18.90;14.00;;;4.30;99.90;;;;;;5049359;28;20238;-54
2021/12/12 13:13:32;;;;;;;24.27;15.30;;;4.30;99.90;;;;;;5052901;28;20234;-54
2021/12/12 13:16:06;;;;;;;25.47;15.87;;;4.30;99.90;;;;;;5052933;28;20248;-54
2021/12/12 13:18:50;;;;;;;23.97;14.50;;;4.30;99.90;;;;;;5052879;28;20215;-57
2021/12/12 13:21:30;;;;;;;25.67;16.03;;;4.30;99.90;;;;;;5053036;28;20304;-56
2021/12/12 13:24:16;;;;;;;21.03;14.73;;;4.30;99.90;;;;;;5052268;28;20228;-56
2021/12/12 13:27:00;;;;;;;16.53;12.90;;;4.30;99.90;;;;;;5051907;28;20207;-55